createdAt,value
2017-11-30T00:01:27.460Z,9.47
2017-11-30T00:03:55.787Z,9.03
2017-11-30T00:06:24.049Z,9.10
2017-11-30T00:08:52.313Z,8.50
2017-11-30T00:11:20.708Z,9.73
2017-11-30T00:13:48.985Z,9.48
2017-11-30T00:16:17.290Z,9.05
2017-11-30T00:18:45.575Z,9.30
2017-11-30T00:21:13.848Z,8.80
2017-11-30T00:23:42.140Z,9.00
2017-11-30T00:26:10.404Z,8.20
2017-11-30T00:28:38.694Z,8.10
2017-11-30T00:31:06.953Z,7.70
2017-11-30T00:33:35.257Z,7.70
2017-11-30T00:36:04.189Z,7.40
2017-11-30T00:38:32.496Z,8.60
2017-11-30T00:41:00.813Z,7.50
2017-11-30T00:43:31.511Z,7.50
2017-11-30T00:45:59.778Z,7.50
2017-11-30T00:48:28.057Z,7.70
2017-11-30T00:50:56.385Z,8.50
2017-11-30T00:53:24.708Z,8.97
2017-11-30T00:55:52.961Z,8.17
2017-11-30T00:58:21.265Z,8.05
2017-11-30T01:00:49.567Z,8.50
2017-11-30T01:03:17.799Z,8.45
2017-11-30T01:05:46.099Z,9.13
2017-11-30T01:08:14.364Z,8.57
2017-11-30T01:10:42.644Z,8.33
2017-11-30T01:13:10.910Z,7.40
2017-11-30T01:15:39.212Z,8.90
2017-11-30T01:18:07.484Z,8.97
2017-11-30T01:20:35.789Z,7.63
2017-11-30T01:23:04.065Z,9.10
2017-11-30T01:25:32.357Z,7.73
2017-11-30T01:28:00.634Z,7.53
2017-11-30T01:30:28.880Z,7.90
2017-11-30T01:32:57.160Z,7.50
2017-11-30T01:35:25.440Z,7.37
2017-11-30T01:37:53.745Z,7.30
2017-11-30T01:40:22.003Z,7.70
2017-11-30T01:42:50.290Z,6.77
2017-11-30T01:45:18.568Z,5.83
2017-11-30T01:47:46.851Z,5.63
2017-11-30T01:50:15.160Z,5.37
2017-11-30T01:52:43.453Z,4.53
2017-11-30T01:55:11.774Z,4.90
2017-11-30T01:57:40.025Z,5.17
2017-11-30T02:00:08.306Z,4.50
2017-11-30T02:02:36.768Z,4.00
2017-11-30T02:05:05.205Z,3.97
2017-11-30T02:07:33.474Z,4.73
2017-11-30T02:10:01.782Z,4.70
2017-11-30T02:12:30.040Z,4.43
2017-11-30T02:14:58.510Z,4.50
2017-11-30T02:17:26.814Z,5.00
2017-11-30T02:19:55.202Z,4.47
2017-11-30T02:22:23.469Z,3.72
2017-11-30T02:24:51.744Z,4.17
2017-11-30T02:27:20.021Z,5.10
2017-11-30T02:29:48.318Z,4.87
2017-11-30T02:32:16.584Z,5.50
2017-11-30T02:34:44.879Z,5.03
2017-11-30T02:37:13.418Z,4.93
2017-11-30T02:39:41.697Z,5.47
2017-11-30T02:42:10.003Z,4.98
2017-11-30T02:44:38.269Z,4.30
2017-11-30T02:47:06.565Z,4.40
2017-11-30T02:49:34.833Z,4.10
2017-11-30T02:52:03.124Z,3.40
2017-11-30T02:54:31.596Z,4.03
2017-11-30T02:56:59.913Z,4.00
2017-11-30T02:59:28.159Z,3.83
2017-11-30T03:01:56.446Z,4.40
2017-11-30T03:04:24.733Z,4.50
2017-11-30T03:06:53.433Z,4.23
2017-11-30T03:09:22.379Z,4.20
2017-11-30T03:11:50.665Z,5.00
2017-11-30T03:14:20.150Z,5.67
2017-11-30T03:16:48.424Z,4.50
2017-11-30T03:19:16.721Z,4.40
2017-11-30T03:21:44.985Z,4.53
2017-11-30T03:24:13.293Z,4.50
2017-11-30T03:26:41.566Z,4.80
2017-11-30T03:29:09.845Z,4.78
2017-11-30T03:31:38.145Z,4.53
2017-11-30T03:34:06.647Z,4.87
2017-11-30T03:36:35.667Z,4.60
2017-11-30T03:39:03.966Z,4.97
2017-11-30T03:41:32.209Z,5.17
2017-11-30T03:44:01.052Z,5.28
2017-11-30T03:46:29.333Z,6.10
2017-11-30T03:48:58.420Z,5.90
2017-11-30T03:51:26.716Z,6.37
2017-11-30T03:53:54.956Z,6.50
2017-11-30T03:56:23.206Z,6.30
2017-11-30T03:58:51.857Z,5.80
2017-11-30T04:01:20.103Z,6.20
2017-11-30T04:03:48.400Z,6.10
2017-11-30T04:06:16.719Z,6.30
2017-11-30T04:08:45.038Z,6.30
2017-11-30T04:11:13.251Z,6.70
2017-11-30T04:13:41.521Z,7.12
2017-11-30T04:16:09.782Z,6.85
2017-11-30T04:18:38.074Z,6.40
2017-11-30T04:21:06.365Z,7.60
2017-11-30T04:23:34.624Z,7.70
2017-11-30T04:26:02.904Z,7.70
2017-11-30T04:28:31.189Z,6.25
2017-11-30T04:30:59.433Z,6.67
2017-11-30T04:33:27.676Z,6.80
2017-11-30T04:35:55.961Z,6.30
2017-11-30T04:38:24.229Z,6.77
2017-11-30T04:40:52.508Z,6.80
2017-11-30T04:43:20.809Z,6.22
2017-11-30T04:45:49.096Z,6.07
2017-11-30T04:48:17.372Z,7.07
2017-11-30T04:50:45.678Z,5.33
2017-11-30T04:53:13.949Z,7.07
2017-11-30T04:55:42.239Z,6.87
2017-11-30T04:58:10.514Z,5.97
2017-11-30T05:00:38.774Z,6.23
2017-11-30T05:03:07.113Z,6.97
2017-11-30T05:05:35.368Z,6.43
2017-11-30T05:08:04.251Z,6.30
2017-11-30T05:10:32.496Z,6.40
2017-11-30T05:13:00.748Z,6.47
2017-11-30T05:15:29.045Z,6.80
2017-11-30T05:17:57.312Z,7.40
2017-11-30T05:20:25.577Z,6.50
2017-11-30T05:22:53.835Z,6.87
2017-11-30T05:25:22.122Z,6.55
2017-11-30T05:27:50.426Z,7.40
2017-11-30T05:30:18.695Z,7.68
2017-11-30T05:32:46.942Z,7.10
2017-11-30T05:35:15.217Z,7.33
2017-11-30T05:37:43.505Z,7.80
2017-11-30T05:40:11.811Z,7.87
2017-11-30T05:42:40.082Z,6.20
2017-11-30T05:45:08.340Z,7.62
2017-11-30T05:47:36.621Z,7.37
2017-11-30T05:50:04.893Z,7.20
2017-11-30T05:52:33.181Z,8.00
2017-11-30T05:55:01.442Z,7.03
2017-11-30T05:57:29.750Z,7.57
2017-11-30T05:59:58.022Z,7.10
2017-11-30T06:02:26.308Z,6.83
2017-11-30T06:04:54.574Z,6.57
2017-11-30T06:07:22.815Z,6.30
2017-11-30T06:09:51.160Z,6.17
2017-11-30T06:12:19.904Z,6.00
2017-11-30T06:14:48.327Z,6.83
2017-11-30T06:17:16.569Z,6.28
2017-11-30T06:19:44.867Z,6.57
2017-11-30T06:22:13.150Z,6.93
2017-11-30T06:24:41.428Z,6.83
2017-11-30T06:27:09.811Z,6.82
2017-11-30T06:29:38.072Z,5.83
2017-11-30T06:32:06.350Z,6.63
2017-11-30T06:34:34.642Z,6.23
2017-11-30T06:37:02.956Z,6.70
2017-11-30T06:39:31.249Z,7.13
2017-11-30T06:41:59.555Z,7.05
2017-11-30T06:44:27.868Z,7.00
2017-11-30T06:46:56.155Z,6.83
2017-11-30T06:49:24.440Z,6.33
2017-11-30T06:51:52.709Z,7.50
2017-11-30T06:54:21.017Z,6.30
2017-11-30T06:56:49.260Z,7.20
2017-11-30T06:59:17.555Z,6.78
2017-11-30T07:01:45.840Z,7.33
2017-11-30T07:04:14.175Z,6.10
2017-11-30T07:06:42.442Z,8.00
2017-11-30T07:09:10.685Z,7.30
2017-11-30T07:11:39.025Z,6.30
2017-11-30T07:14:07.592Z,6.47
2017-11-30T07:16:35.936Z,6.73
2017-11-30T07:19:04.980Z,6.45
2017-11-30T07:21:33.276Z,6.77
2017-11-30T07:24:01.585Z,6.18
2017-11-30T07:26:29.894Z,7.20
2017-11-30T07:28:58.168Z,6.10
2017-11-30T07:31:26.489Z,6.80
2017-11-30T07:33:54.828Z,6.80
2017-11-30T07:36:23.785Z,7.20
2017-11-30T07:38:52.056Z,7.50
2017-11-30T07:41:20.318Z,7.90
2017-11-30T07:43:48.620Z,6.80
2017-11-30T07:46:16.916Z,7.97
2017-11-30T07:48:45.225Z,8.47
2017-11-30T07:51:13.461Z,8.50
2017-11-30T07:53:42.234Z,9.73
2017-11-30T07:56:10.499Z,9.47
2017-11-30T07:58:38.968Z,9.73
2017-11-30T08:01:07.260Z,10.03
2017-11-30T08:03:35.607Z,8.90
2017-11-30T08:06:04.187Z,8.90
2017-11-30T08:08:32.440Z,9.17
2017-11-30T08:11:00.737Z,8.90
2017-11-30T08:13:29.081Z,9.13
2017-11-30T08:15:57.389Z,8.83
2017-11-30T08:18:25.690Z,9.35
2017-11-30T08:20:54.072Z,9.10
2017-11-30T08:23:22.349Z,8.23
2017-11-30T08:25:50.640Z,8.57
2017-11-30T08:28:18.940Z,8.27
2017-11-30T08:30:47.282Z,9.07
2017-11-30T08:33:15.553Z,10.33
2017-11-30T08:35:43.841Z,9.37
2017-11-30T08:38:12.130Z,9.15
2017-11-30T08:40:40.381Z,8.43
2017-11-30T08:43:08.665Z,9.73
2017-11-30T08:45:36.942Z,9.70
2017-11-30T08:48:05.225Z,9.67
2017-11-30T08:50:34.315Z,9.10
2017-11-30T08:53:02.631Z,9.27
2017-11-30T08:55:31.089Z,9.53
2017-11-30T08:57:59.371Z,9.47
2017-11-30T09:00:27.699Z,9.60
2017-11-30T09:02:55.978Z,9.70
2017-11-30T09:05:24.777Z,9.17
2017-11-30T09:07:53.060Z,10.23
2017-11-30T09:10:21.390Z,9.13
2017-11-30T09:12:49.770Z,10.07
2017-11-30T09:15:18.113Z,8.90
2017-11-30T09:17:46.406Z,8.53
2017-11-30T09:20:14.808Z,9.40
2017-11-30T09:22:43.100Z,9.30
2017-11-30T09:25:11.859Z,9.63
2017-11-30T09:27:40.307Z,10.00
2017-11-30T09:30:08.609Z,9.07
2017-11-30T09:32:36.916Z,10.30
2017-11-30T09:35:05.749Z,8.95
2017-11-30T09:37:34.019Z,8.97
2017-11-30T09:40:02.360Z,9.23
2017-11-30T09:42:30.668Z,11.97
2017-11-30T09:44:59.009Z,10.10
2017-11-30T09:47:27.349Z,10.17
2017-11-30T09:49:55.635Z,10.10
2017-11-30T09:52:23.991Z,9.80
2017-11-30T09:54:52.349Z,9.77
2017-11-30T09:57:20.850Z,9.73
2017-11-30T09:59:49.096Z,9.90
2017-11-30T10:02:17.468Z,11.00
2017-11-30T10:04:45.792Z,10.73
2017-11-30T10:07:14.058Z,9.52
2017-11-30T10:09:42.418Z,9.43
2017-11-30T10:12:10.672Z,8.82
2017-11-30T10:14:39.040Z,7.65
2017-11-30T10:17:07.323Z,8.63
2017-11-30T10:19:35.616Z,7.85
2017-11-30T10:22:03.908Z,8.60
2017-11-30T10:24:32.329Z,9.33
2017-11-30T10:27:00.669Z,9.97
2017-11-30T10:29:29.344Z,10.57
2017-11-30T10:31:57.616Z,9.13
2017-11-30T10:34:25.913Z,9.70
2017-11-30T10:36:54.203Z,10.40
2017-11-30T10:39:22.477Z,9.98
2017-11-30T10:41:50.835Z,10.30
2017-11-30T10:44:19.186Z,9.50
2017-11-30T10:46:47.502Z,9.67
2017-11-30T10:49:16.380Z,10.90
2017-11-30T10:51:44.689Z,10.20
2017-11-30T10:54:12.985Z,9.63
2017-11-30T10:56:41.417Z,11.37
2017-11-30T10:59:09.712Z,9.70
2017-11-30T11:01:39.000Z,10.73
2017-11-30T11:04:07.310Z,10.10
2017-11-30T11:06:36.280Z,10.97
2017-11-30T11:09:05.398Z,10.63
2017-11-30T11:11:33.706Z,12.40
2017-11-30T11:14:02.021Z,11.90
2017-11-30T11:16:30.345Z,11.83
2017-11-30T11:18:58.949Z,11.23
2017-11-30T11:21:27.224Z,10.90
2017-11-30T11:23:55.826Z,11.13
2017-11-30T11:26:24.120Z,12.13
2017-11-30T11:28:52.466Z,11.87
2017-11-30T11:31:20.728Z,11.77
2017-11-30T11:33:49.034Z,10.77
2017-11-30T11:36:17.374Z,10.80
2017-11-30T11:38:45.756Z,11.40
2017-11-30T11:41:14.040Z,10.80
2017-11-30T11:43:42.318Z,11.20
2017-11-30T11:46:10.619Z,12.80
2017-11-30T11:48:38.881Z,11.30
2017-11-30T11:51:07.169Z,11.07
2017-11-30T11:53:36.081Z,11.00
2017-11-30T11:56:04.659Z,12.35
2017-11-30T11:58:32.937Z,10.60
2017-11-30T12:01:01.205Z,10.77
2017-11-30T12:03:29.497Z,10.30
2017-11-30T12:05:58.385Z,10.80
2017-11-30T12:08:27.184Z,10.63
2017-11-30T12:10:55.504Z,9.93
2017-11-30T12:13:23.859Z,11.50
2017-11-30T12:15:52.134Z,10.53
2017-11-30T12:18:20.448Z,10.73
2017-11-30T12:20:48.737Z,11.10
2017-11-30T12:23:17.087Z,11.77
2017-11-30T12:25:45.397Z,11.27
2017-11-30T12:28:13.682Z,10.43
2017-11-30T12:30:41.968Z,10.10
2017-11-30T12:33:10.228Z,10.35
2017-11-30T12:35:39.421Z,12.10
2017-11-30T12:38:07.684Z,11.87
2017-11-30T12:40:36.034Z,12.27
2017-11-30T12:43:05.089Z,11.98
2017-11-30T12:45:33.416Z,11.70
2017-11-30T12:48:01.734Z,13.03
2017-11-30T12:50:29.997Z,14.40
2017-11-30T12:52:58.260Z,12.73
2017-11-30T12:55:26.597Z,11.50
2017-11-30T12:57:54.875Z,11.63
2017-11-30T13:00:23.171Z,11.13
2017-11-30T13:02:51.455Z,11.33
2017-11-30T13:05:19.799Z,11.90
2017-11-30T13:07:48.104Z,9.93
2017-11-30T13:10:16.384Z,9.90
2017-11-30T13:12:44.860Z,8.65
2017-11-30T13:15:13.162Z,8.30
2017-11-30T13:17:41.444Z,8.38
2017-11-30T13:20:09.793Z,9.20
2017-11-30T13:22:38.481Z,8.97
2017-11-30T13:25:06.790Z,8.07
2017-11-30T13:27:36.167Z,7.33
2017-11-30T13:30:04.424Z,6.80
2017-11-30T13:32:33.638Z,6.80
2017-11-30T13:35:03.238Z,7.30
2017-11-30T13:37:31.648Z,7.13
2017-11-30T13:40:00.822Z,8.18
2017-11-30T13:42:29.095Z,7.90
2017-11-30T13:44:57.390Z,8.27
2017-11-30T13:47:25.634Z,6.70
2017-11-30T13:49:54.171Z,5.57
2017-11-30T13:52:22.513Z,6.28
2017-11-30T13:54:50.867Z,6.05
2017-11-30T13:57:19.157Z,6.87
2017-11-30T13:59:47.432Z,6.80
2017-11-30T14:02:15.714Z,6.07
2017-11-30T14:04:44.063Z,7.60
2017-11-30T14:07:12.338Z,6.50
2017-11-30T14:09:40.620Z,6.13
2017-11-30T14:12:08.935Z,6.67
2017-11-30T14:14:37.266Z,5.80
2017-11-30T14:17:05.894Z,7.72
2017-11-30T14:19:34.207Z,7.93
2017-11-30T14:22:02.489Z,7.00
2017-11-30T14:24:30.801Z,6.93
2017-11-30T14:26:59.103Z,7.37
2017-11-30T14:29:27.488Z,8.03
2017-11-30T14:31:55.806Z,7.03
2017-11-30T14:34:24.072Z,6.23
2017-11-30T14:36:52.339Z,6.47
2017-11-30T14:39:21.323Z,6.75
2017-11-30T14:41:50.829Z,6.00
2017-11-30T14:44:19.195Z,8.10
2017-11-30T14:46:47.554Z,5.60
2017-11-30T14:49:15.835Z,5.80
2017-11-30T14:51:44.991Z,4.50
2017-11-30T14:54:13.269Z,3.53
2017-11-30T14:56:41.563Z,3.20
2017-11-30T14:59:09.871Z,3.20
2017-11-30T15:01:38.258Z,3.53
2017-11-30T15:04:06.528Z,3.10
2017-11-30T15:06:34.791Z,3.10
2017-11-30T15:09:03.274Z,3.00
2017-11-30T15:11:31.630Z,2.70
2017-11-30T15:14:00.021Z,3.13
2017-11-30T15:16:28.396Z,2.93
2017-11-30T15:18:57.538Z,2.93
2017-11-30T15:21:27.264Z,2.70
2017-11-30T15:23:55.536Z,3.40
2017-11-30T15:26:24.439Z,3.05
2017-11-30T15:28:52.795Z,3.80
2017-11-30T15:31:21.067Z,5.40
2017-11-30T15:33:50.069Z,3.77
2017-11-30T15:36:18.416Z,2.80
2017-11-30T15:38:46.744Z,2.90
2017-11-30T15:41:15.064Z,3.63
2017-11-30T15:43:43.344Z,4.10
2017-11-30T15:46:11.693Z,3.90
2017-11-30T15:48:39.977Z,4.20
2017-11-30T15:51:08.647Z,3.60
2017-11-30T15:53:36.905Z,4.50
2017-11-30T15:56:05.312Z,4.10
2017-11-30T15:58:34.380Z,4.15
2017-11-30T16:01:02.695Z,4.37
2017-11-30T16:03:31.059Z,4.50
2017-11-30T16:05:59.373Z,4.10
2017-11-30T16:08:27.619Z,4.93
2017-11-30T16:10:55.890Z,4.37
2017-11-30T16:13:24.471Z,4.73
2017-11-30T16:15:52.853Z,5.37
2017-11-30T16:18:21.128Z,5.70
2017-11-30T16:20:49.394Z,4.87
2017-11-30T16:23:17.731Z,5.13
2017-11-30T16:25:45.983Z,6.20
2017-11-30T16:28:14.260Z,6.77
2017-11-30T16:30:42.511Z,6.77
2017-11-30T16:33:10.786Z,6.00
2017-11-30T16:35:39.054Z,6.43
2017-11-30T16:38:07.336Z,5.40
2017-11-30T16:40:35.612Z,6.17
2017-11-30T16:43:03.883Z,6.40
2017-11-30T16:45:32.203Z,4.90
2017-11-30T16:48:00.497Z,5.70
2017-11-30T16:50:28.802Z,6.17
2017-11-30T16:52:58.121Z,5.03
2017-11-30T16:55:26.403Z,7.65
2017-11-30T16:57:55.764Z,7.47
2017-11-30T17:00:23.995Z,7.50
2017-11-30T17:02:52.278Z,6.97
2017-11-30T17:05:20.565Z,8.00
2017-11-30T17:07:48.868Z,6.55
2017-11-30T17:10:17.162Z,5.62
2017-11-30T17:12:45.456Z,7.40
2017-11-30T17:15:13.747Z,7.70
2017-11-30T17:17:42.012Z,7.40
2017-11-30T17:20:10.346Z,6.83
2017-11-30T17:22:38.705Z,6.37
2017-11-30T17:25:07.079Z,7.60
2017-11-30T17:27:35.343Z,5.77
2017-11-30T17:30:03.627Z,5.57
2017-11-30T17:32:31.951Z,5.77
2017-11-30T17:35:00.263Z,6.03
2017-11-30T17:37:28.530Z,6.83
2017-11-30T17:39:56.946Z,6.63
2017-11-30T17:42:25.186Z,7.32
2017-11-30T17:44:53.526Z,5.70
2017-11-30T17:47:21.800Z,6.22
2017-11-30T17:49:50.156Z,6.60
2017-11-30T17:52:18.416Z,6.10
2017-11-30T17:54:46.664Z,6.43
2017-11-30T17:57:14.984Z,6.37
2017-11-30T17:59:43.246Z,5.70
2017-11-30T18:02:11.543Z,5.20
2017-11-30T18:04:39.905Z,5.60
2017-11-30T18:07:08.192Z,6.20
2017-11-30T18:09:36.468Z,6.67
2017-11-30T18:12:05.442Z,5.70
2017-11-30T18:14:33.720Z,6.53
2017-11-30T18:17:02.127Z,6.70
2017-11-30T18:19:30.423Z,6.10
2017-11-30T18:21:58.728Z,7.30
2017-11-30T18:24:27.027Z,6.60
2017-11-30T18:26:55.791Z,6.90
2017-11-30T18:29:24.091Z,6.03
2017-11-30T18:31:52.376Z,6.13
2017-11-30T18:34:20.687Z,6.57
2017-11-30T18:36:48.937Z,6.23
2017-11-30T18:39:17.213Z,6.68
2017-11-30T18:41:45.563Z,6.03
2017-11-30T18:44:13.833Z,7.12
2017-11-30T18:46:42.107Z,7.50
2017-11-30T18:49:10.479Z,7.17
2017-11-30T18:51:38.870Z,7.67
2017-11-30T18:54:07.156Z,7.72
2017-11-30T18:56:35.440Z,7.37
2017-11-30T18:59:03.694Z,6.73
2017-11-30T19:01:31.995Z,6.90
2017-11-30T19:04:00.259Z,5.60
2017-11-30T19:06:28.626Z,6.80
2017-11-30T19:08:56.865Z,6.30
2017-11-30T19:11:25.239Z,6.55
2017-11-30T19:13:53.519Z,9.20
2017-11-30T19:16:21.820Z,7.47
2017-11-30T19:18:50.091Z,8.00
2017-11-30T19:21:18.354Z,8.85
2017-11-30T19:23:46.656Z,8.70
2017-11-30T19:26:14.942Z,8.17
2017-11-30T19:28:43.211Z,7.90
2017-11-30T19:31:11.993Z,7.20
2017-11-30T19:33:41.209Z,8.40
2017-11-30T19:36:09.499Z,8.05
2017-11-30T19:38:37.788Z,6.93
2017-11-30T19:41:06.074Z,7.60
2017-11-30T19:43:34.335Z,7.40
2017-11-30T19:46:02.646Z,6.90
2017-11-30T19:48:30.936Z,6.87
2017-11-30T19:50:59.239Z,7.50
2017-11-30T19:53:27.515Z,8.20
2017-11-30T19:55:55.766Z,7.90
2017-11-30T19:58:24.054Z,7.63
2017-11-30T20:00:52.317Z,7.93
2017-11-30T20:03:20.599Z,7.00
2017-11-30T20:05:48.880Z,7.90
2017-11-30T20:08:17.153Z,8.20
2017-11-30T20:10:45.464Z,8.53
2017-11-30T20:13:13.741Z,7.68
2017-11-30T20:15:42.018Z,6.97
2017-11-30T20:18:10.322Z,7.32
2017-11-30T20:20:38.619Z,7.00
2017-11-30T20:23:06.935Z,7.20
2017-11-30T20:25:35.221Z,6.80
2017-11-30T20:28:03.479Z,7.50
2017-11-30T20:30:31.767Z,7.20
2017-11-30T20:33:00.063Z,8.03
2017-11-30T20:35:28.358Z,7.90
2017-11-30T20:37:56.671Z,7.77
2017-11-30T20:40:24.963Z,10.40
2017-11-30T20:42:53.228Z,9.63
2017-11-30T20:45:21.599Z,7.90
2017-11-30T20:47:50.455Z,7.07
2017-11-30T20:50:18.729Z,7.80
2017-11-30T20:52:47.086Z,8.03
2017-11-30T20:55:15.396Z,7.80
2017-11-30T20:57:43.660Z,8.17
2017-11-30T21:00:12.223Z,8.87
2017-11-30T21:02:40.520Z,7.20
2017-11-30T21:05:08.819Z,6.53
2017-11-30T21:07:37.182Z,7.40
2017-11-30T21:10:05.458Z,6.87
2017-11-30T21:12:33.743Z,6.60
2017-11-30T21:15:02.047Z,6.60
2017-11-30T21:17:30.310Z,6.67
2017-11-30T21:19:58.605Z,9.50
2017-11-30T21:22:26.882Z,7.37
2017-11-30T21:24:55.210Z,7.60
2017-11-30T21:27:23.532Z,6.90
2017-11-30T21:29:52.714Z,6.47
2017-11-30T21:32:20.968Z,7.00
2017-11-30T21:34:49.268Z,6.33
2017-11-30T21:37:17.547Z,7.45
2017-11-30T21:39:45.850Z,6.77
2017-11-30T21:42:14.100Z,7.30
2017-11-30T21:44:42.455Z,7.57
2017-11-30T21:47:10.774Z,7.70
2017-11-30T21:49:39.068Z,6.13
2017-11-30T21:52:07.339Z,5.73
2017-11-30T21:54:36.506Z,6.60
2017-11-30T21:57:05.773Z,6.40
2017-11-30T21:59:34.055Z,5.57
2017-11-30T22:02:02.420Z,5.90
2017-11-30T22:04:30.679Z,6.10
2017-11-30T22:06:58.972Z,6.33
2017-11-30T22:09:27.258Z,6.65
2017-11-30T22:11:55.928Z,6.17
2017-11-30T22:14:24.186Z,6.17
2017-11-30T22:16:52.449Z,7.23
2017-11-30T22:19:21.540Z,5.93
2017-11-30T22:21:49.791Z,6.37
2017-11-30T22:24:18.100Z,6.40
2017-11-30T22:26:46.363Z,6.10
2017-11-30T22:29:14.644Z,6.47
2017-11-30T22:31:42.923Z,6.43
2017-11-30T22:34:11.207Z,6.35
2017-11-30T22:36:39.486Z,6.87
2017-11-30T22:39:08.091Z,7.90
2017-11-30T22:41:36.410Z,7.07
2017-11-30T22:44:05.852Z,7.40
2017-11-30T22:46:34.179Z,7.93
2017-11-30T22:49:02.420Z,8.03
2017-11-30T22:51:30.702Z,8.30
2017-11-30T22:53:58.974Z,8.13
2017-11-30T22:56:27.299Z,7.57
2017-11-30T22:58:55.575Z,7.23
2017-11-30T23:01:23.870Z,6.60
2017-11-30T23:03:52.180Z,6.35
2017-11-30T23:06:20.456Z,6.33
2017-11-30T23:08:48.751Z,6.73
2017-11-30T23:11:17.728Z,6.05
2017-11-30T23:13:45.991Z,6.77
2017-11-30T23:16:14.272Z,6.40
2017-11-30T23:18:42.555Z,6.60
2017-11-30T23:21:10.820Z,6.85
2017-11-30T23:23:39.105Z,6.53
2017-11-30T23:26:07.376Z,6.10
2017-11-30T23:28:35.916Z,6.80
2017-11-30T23:31:05.020Z,6.35
2017-11-30T23:33:33.342Z,6.63
2017-11-30T23:36:01.610Z,6.43
2017-11-30T23:38:30.062Z,6.93
2017-11-30T23:40:58.319Z,6.40
2017-11-30T23:43:26.599Z,6.07
2017-11-30T23:45:54.904Z,7.00
2017-11-30T23:48:23.180Z,7.73
2017-11-30T23:50:51.477Z,6.70
2017-11-30T23:53:20.443Z,6.50
2017-11-30T23:55:48.714Z,5.87
2017-11-30T23:58:16.979Z,6.57
